sensor_id;sensor_type;location;lat;lon;timestamp;pressure;altitude;pressure_sealevel;temperature;humidity
30856;BME280;17570;0.000;0.000;2024-01-27T00:00:12;97463.11;;;11.32;35.55
30856;BME280;17570;0.000;0.000;2024-01-27T00:02:40;97464.89;;;11.32;35.09
30856;BME280;17570;0.000;0.000;2024-01-27T00:05:08;97459.40;;;11.59;34.35
30856;BME280;17570;0.000;0.000;2024-01-27T00:07:35;97467.45;;;11.78;34.27
30856;BME280;17570;0.000;0.000;2024-01-27T00:10:03;97461.43;;;11.78;34.15
30856;BME280;17570;0.000;0.000;2024-01-27T00:12:30;97452.20;;;11.62;34.37
30856;BME280;17570;0.000;0.000;2024-01-27T00:14:58;97456.67;;;11.49;34.77
30856;BME280;17570;0.000;0.000;2024-01-27T00:17:25;97458.05;;;11.42;35.08
30856;BME280;17570;0.000;0.000;2024-01-27T00:19:54;97468.63;;;11.63;34.67
30856;BME280;17570;0.000;0.000;2024-01-27T00:22:22;97473.48;;;11.79;34.50
30856;BME280;17570;0.000;0.000;2024-01-27T00:24:50;97468.78;;;11.84;34.29
30856;BME280;17570;0.000;0.000;2024-01-27T00:27:17;97472.91;;;11.75;34.41
30856;BME280;17570;0.000;0.000;2024-01-27T00:29:45;97471.35;;;11.61;35.04
30856;BME280;17570;0.000;0.000;2024-01-27T00:32:12;97469.09;;;11.57;34.77
30856;BME280;17570;0.000;0.000;2024-01-27T00:34:40;97466.75;;;11.76;34.39
30856;BME280;17570;0.000;0.000;2024-01-27T00:37:07;97471.28;;;11.96;34.06
30856;BME280;17570;0.000;0.000;2024-01-27T00:39:34;97466.09;;;11.85;34.14
30856;BME280;17570;0.000;0.000;2024-01-27T00:42:02;97461.30;;;11.68;34.46
30856;BME280;17570;0.000;0.000;2024-01-27T00:44:29;97457.14;;;11.54;34.71
30856;BME280;17570;0.000;0.000;2024-01-27T00:46:57;97451.60;;;11.70;34.53
30856;BME280;17570;0.000;0.000;2024-01-27T00:49:24;97445.28;;;11.85;34.24
30856;BME280;17570;0.000;0.000;2024-01-27T00:51:52;97445.04;;;11.99;34.05
30856;BME280;17570;0.000;0.000;2024-01-27T00:54:19;97448.92;;;11.83;34.07
30856;BME280;17570;0.000;0.000;2024-01-27T00:56:47;97435.08;;;11.71;34.52
30856;BME280;17570;0.000;0.000;2024-01-27T00:59:14;97435.80;;;11.84;34.07
30856;BME280;17570;0.000;0.000;2024-01-27T01:01:42;97439.47;;;11.93;34.35
30856;BME280;17570;0.000;0.000;2024-01-27T01:04:09;97438.30;;;11.86;33.96
30856;BME280;17570;0.000;0.000;2024-01-27T01:06:38;97458.58;;;11.69;34.34
30856;BME280;17570;0.000;0.000;2024-01-27T01:09:06;97450.20;;;11.77;34.29
30856;BME280;17570;0.000;0.000;2024-01-27T01:11:35;97443.50;;;11.86;34.40
30856;BME280;17570;0.000;0.000;2024-01-27T01:14:02;97450.70;;;11.93;34.21
30856;BME280;17570;0.000;0.000;2024-01-27T01:16:30;97446.77;;;11.77;34.36
30856;BME280;17570;0.000;0.000;2024-01-27T01:18:57;97447.61;;;11.66;34.76
30856;BME280;17570;0.000;0.000;2024-01-27T01:21:25;97420.18;;;11.62;34.82
30856;BME280;17570;0.000;0.000;2024-01-27T01:23:53;97413.34;;;11.83;34.64
30856;BME280;17570;0.000;0.000;2024-01-27T01:26:20;97419.84;;;12.00;34.39
30856;BME280;17570;0.000;0.000;2024-01-27T01:28:48;97415.13;;;11.94;34.04
30856;BME280;17570;0.000;0.000;2024-01-27T01:31:15;97406.94;;;11.76;34.49
30856;BME280;17570;0.000;0.000;2024-01-27T01:33:43;97414.77;;;11.87;34.65
30856;BME280;17570;0.000;0.000;2024-01-27T01:36:11;97417.94;;;12.02;34.46
30856;BME280;17570;0.000;0.000;2024-01-27T01:38:38;97403.88;;;11.93;33.96
30856;BME280;17570;0.000;0.000;2024-01-27T01:41:07;97402.31;;;11.80;34.43
30856;BME280;17570;0.000;0.000;2024-01-27T01:43:34;97390.14;;;11.69;34.61
30856;BME280;17570;0.000;0.000;2024-01-27T01:46:02;97389.22;;;11.92;34.25
30856;BME280;17570;0.000;0.000;2024-01-27T01:48:29;97399.50;;;12.05;34.29
30856;BME280;17570;0.000;0.000;2024-01-27T01:50:58;97389.34;;;11.91;34.01
30856;BME280;17570;0.000;0.000;2024-01-27T01:53:25;97389.56;;;11.77;34.32
30856;BME280;17570;0.000;0.000;2024-01-27T01:55:53;97380.23;;;11.63;34.68
30856;BME280;17570;0.000;0.000;2024-01-27T01:58:20;97383.41;;;11.78;34.56
30856;BME280;17570;0.000;0.000;2024-01-27T02:00:48;97394.78;;;11.99;34.36
30856;BME280;17570;0.000;0.000;2024-01-27T02:03:15;97391.36;;;11.98;34.05
30856;BME280;17570;0.000;0.000;2024-01-27T02:05:43;97397.73;;;11.83;34.41
30856;BME280;17570;0.000;0.000;2024-01-27T02:08:10;97392.88;;;11.67;34.60
30856;BME280;17570;0.000;0.000;2024-01-27T02:10:38;97402.09;;;11.71;34.94
30856;BME280;17570;0.000;0.000;2024-01-27T02:15:45;97408.85;;;12.08;34.37
30856;BME280;17570;0.000;0.000;2024-01-27T02:18:13;97399.16;;;11.87;34.10
30856;BME280;17570;0.000;0.000;2024-01-27T02:20:40;97389.80;;;11.73;34.31
30856;BME280;17570;0.000;0.000;2024-01-27T02:23:08;97385.42;;;11.63;34.65
30856;BME280;17570;0.000;0.000;2024-01-27T02:25:35;97390.27;;;11.67;34.90
30856;BME280;17570;0.000;0.000;2024-01-27T02:28:03;97384.97;;;11.91;34.48
30856;BME280;17570;0.000;0.000;2024-01-27T02:30:31;97385.67;;;12.05;34.53
30856;BME280;17570;0.000;0.000;2024-01-27T02:32:58;97373.14;;;11.87;34.69
30856;BME280;17570;0.000;0.000;2024-01-27T02:35:26;97377.52;;;11.75;34.07
30856;BME280;17570;0.000;0.000;2024-01-27T02:37:53;97384.50;;;11.86;34.22
30856;BME280;17570;0.000;0.000;2024-01-27T02:40:21;97375.49;;;12.02;33.84
30856;BME280;17570;0.000;0.000;2024-01-27T02:42:48;97370.42;;;12.00;33.95
30856;BME280;17570;0.000;0.000;2024-01-27T02:45:16;97366.07;;;11.89;33.88
30856;BME280;17570;0.000;0.000;2024-01-27T02:47:43;97362.96;;;11.73;34.46
30856;BME280;17570;0.000;0.000;2024-01-27T02:50:11;97360.23;;;11.74;34.56
30856;BME280;17570;0.000;0.000;2024-01-27T02:52:38;97346.09;;;11.90;34.25
30856;BME280;17570;0.000;0.000;2024-01-27T02:55:06;97342.86;;;11.97;34.12
30856;BME280;17570;0.000;0.000;2024-01-27T02:57:33;97335.91;;;11.87;34.17
30856;BME280;17570;0.000;0.000;2024-01-27T03:00:01;97340.28;;;11.86;34.51
30856;BME280;17570;0.000;0.000;2024-01-27T03:02:29;97339.33;;;11.98;34.21
30856;BME280;17570;0.000;0.000;2024-01-27T03:04:56;97333.28;;;11.98;33.56
30856;BME280;17570;0.000;0.000;2024-01-27T03:07:24;97326.20;;;11.89;34.12
30856;BME280;17570;0.000;0.000;2024-01-27T03:09:51;97326.19;;;12.00;34.15
30856;BME280;17570;0.000;0.000;2024-01-27T03:12:19;97325.61;;;11.96;33.79
30856;BME280;17570;0.000;0.000;2024-01-27T03:14:48;97328.11;;;11.87;34.06
30856;BME280;17570;0.000;0.000;2024-01-27T03:17:19;97311.55;;;11.88;34.61
30856;BME280;17570;0.000;0.000;2024-01-27T03:19:46;97293.20;;;12.00;34.21
30856;BME280;17570;0.000;0.000;2024-01-27T03:22:13;97295.93;;;11.99;34.15
30856;BME280;17570;0.000;0.000;2024-01-27T03:24:41;97316.16;;;11.84;33.95
30856;BME280;17570;0.000;0.000;2024-01-27T03:27:09;97317.84;;;11.85;34.46
30856;BME280;17570;0.000;0.000;2024-01-27T03:29:36;97310.59;;;12.00;34.21
30856;BME280;17570;0.000;0.000;2024-01-27T03:32:04;97311.05;;;12.05;34.02
30856;BME280;17570;0.000;0.000;2024-01-27T03:34:31;97315.92;;;11.87;34.06
30856;BME280;17570;0.000;0.000;2024-01-27T03:36:59;97309.77;;;11.99;34.14
30856;BME280;17570;0.000;0.000;2024-01-27T03:39:26;97304.28;;;12.14;33.86
30856;BME280;17570;0.000;0.000;2024-01-27T03:41:54;97284.70;;;11.98;33.84
30856;BME280;17570;0.000;0.000;2024-01-27T03:44:21;97277.14;;;11.84;33.93
30856;BME280;17570;0.000;0.000;2024-01-27T03:46:49;97271.94;;;11.84;34.49
30856;BME280;17570;0.000;0.000;2024-01-27T03:49:17;97279.00;;;12.05;34.19
30856;BME280;17570;0.000;0.000;2024-01-27T03:51:45;97270.55;;;12.12;33.69
30856;BME280;17570;0.000;0.000;2024-01-27T03:54:12;97265.08;;;11.94;33.78
30856;BME280;17570;0.000;0.000;2024-01-27T03:56:41;97261.05;;;11.79;34.21
30856;BME280;17570;0.000;0.000;2024-01-27T03:59:08;97257.37;;;11.93;34.34
30856;BME280;17570;0.000;0.000;2024-01-27T04:01:37;97260.79;;;12.05;34.53
30856;BME280;17570;0.000;0.000;2024-01-27T04:04:05;97265.53;;;11.99;34.01
30856;BME280;17570;0.000;0.000;2024-01-27T04:06:40;97263.09;;;11.87;34.50
30856;BME280;17570;0.000;0.000;2024-01-27T04:09:05;97250.89;;;11.98;34.59
30856;BME280;17570;0.000;0.000;2024-01-27T04:11:36;97237.95;;;12.08;34.24
30856;BME280;17570;0.000;0.000;2024-01-27T04:14:04;97238.62;;;11.89;34.45
30856;BME280;17570;0.000;0.000;2024-01-27T04:16:32;97229.51;;;11.84;34.61
30856;BME280;17570;0.000;0.000;2024-01-27T04:18:59;97222.58;;;12.05;34.78
30856;BME280;17570;0.000;0.000;2024-01-27T04:21:26;97221.77;;;12.05;34.38
30856;BME280;17570;0.000;0.000;2024-01-27T04:23:54;97224.52;;;11.92;34.42
30856;BME280;17570;0.000;0.000;2024-01-27T04:26:21;97229.02;;;11.79;34.96
30856;BME280;17570;0.000;0.000;2024-01-27T04:28:49;97217.66;;;11.80;34.89
30856;BME280;17570;0.000;0.000;2024-01-27T04:31:16;97215.73;;;12.04;34.72
30856;BME280;17570;0.000;0.000;2024-01-27T04:33:44;97220.80;;;12.06;34.40
30856;BME280;17570;0.000;0.000;2024-01-27T04:36:12;97229.48;;;11.95;34.60
30856;BME280;17570;0.000;0.000;2024-01-27T04:38:39;97214.73;;;11.84;34.81
30856;BME280;17570;0.000;0.000;2024-01-27T04:41:07;97211.54;;;11.81;35.04
30856;BME280;17570;0.000;0.000;2024-01-27T04:43:34;97202.15;;;12.00;34.83
30856;BME280;17570;0.000;0.000;2024-01-27T04:46:01;97212.41;;;12.02;34.46
30856;BME280;17570;0.000;0.000;2024-01-27T04:48:29;97209.05;;;11.90;34.89
30856;BME280;17570;0.000;0.000;2024-01-27T04:50:56;97215.68;;;11.83;34.97
30856;BME280;17570;0.000;0.000;2024-01-27T04:53:24;97216.28;;;11.75;35.27
30856;BME280;17570;0.000;0.000;2024-01-27T04:55:51;97218.53;;;11.69;35.33
30856;BME280;17570;0.000;0.000;2024-01-27T04:58:19;97218.80;;;11.66;35.32
30856;BME280;17570;0.000;0.000;2024-01-27T05:00:46;97224.82;;;11.66;35.31
30856;BME280;17570;0.000;0.000;2024-01-27T05:03:14;97235.59;;;11.62;35.29
30856;BME280;17570;0.000;0.000;2024-01-27T05:05:42;97235.95;;;11.57;35.10
30856;BME280;17570;0.000;0.000;2024-01-27T05:08:10;97240.63;;;11.86;34.50
30856;BME280;17570;0.000;0.000;2024-01-27T05:10:37;97258.55;;;12.00;34.26
30856;BME280;17570;0.000;0.000;2024-01-27T05:13:05;97262.22;;;11.97;34.37
30856;BME280;17570;0.000;0.000;2024-01-27T05:15:32;97260.34;;;11.88;34.90
30856;BME280;17570;0.000;0.000;2024-01-27T05:18:00;97259.07;;;11.83;34.78
30856;BME280;17570;0.000;0.000;2024-01-27T05:20:27;97264.61;;;11.78;35.23
30856;BME280;17570;0.000;0.000;2024-01-27T05:22:55;97273.73;;;11.72;35.67
30856;BME280;17570;0.000;0.000;2024-01-27T05:25:22;97270.53;;;11.69;35.35
30856;BME280;17570;0.000;0.000;2024-01-27T05:27:50;97274.09;;;11.68;35.22
30856;BME280;17570;0.000;0.000;2024-01-27T05:30:17;97264.97;;;11.73;34.89
30856;BME280;17570;0.000;0.000;2024-01-27T05:32:45;97267.23;;;11.89;34.30
30856;BME280;17570;0.000;0.000;2024-01-27T05:35:13;97271.43;;;12.02;34.06
30856;BME280;17570;0.000;0.000;2024-01-27T05:37:40;97257.02;;;11.97;34.37
30856;BME280;17570;0.000;0.000;2024-01-27T05:40:08;97265.32;;;11.91;34.91
30856;BME280;17570;0.000;0.000;2024-01-27T05:42:37;97260.61;;;11.85;35.15
30856;BME280;17570;0.000;0.000;2024-01-27T05:45:06;97274.88;;;11.80;35.81
30856;BME280;17570;0.000;0.000;2024-01-27T05:47:34;97280.21;;;11.78;36.12
30856;BME280;17570;0.000;0.000;2024-01-27T05:50:01;97269.72;;;11.68;36.31
30856;BME280;17570;0.000;0.000;2024-01-27T05:52:29;97287.91;;;11.68;36.61
30856;BME280;17570;0.000;0.000;2024-01-27T05:54:57;97277.64;;;11.67;36.62
30856;BME280;17570;0.000;0.000;2024-01-27T05:57:24;97277.19;;;11.62;37.11
30856;BME280;17570;0.000;0.000;2024-01-27T05:59:52;97277.28;;;11.60;37.66
30856;BME280;17570;0.000;0.000;2024-01-27T06:02:20;97283.30;;;11.61;37.79
30856;BME280;17570;0.000;0.000;2024-01-27T06:04:48;97276.23;;;11.63;38.07
30856;BME280;17570;0.000;0.000;2024-01-27T06:07:15;97276.92;;;11.65;38.14
30856;BME280;17570;0.000;0.000;2024-01-27T06:09:48;97283.67;;;11.67;38.44
30856;BME280;17570;0.000;0.000;2024-01-27T06:12:18;97278.83;;;11.63;38.84
30856;BME280;17570;0.000;0.000;2024-01-27T06:15:12;97283.90;;;11.64;39.28
30856;BME280;17570;0.000;0.000;2024-01-27T06:17:49;97277.91;;;11.53;39.67
30856;BME280;17570;0.000;0.000;2024-01-27T06:20:21;97272.44;;;11.56;40.02
30856;BME280;17570;0.000;0.000;2024-01-27T06:22:55;97271.27;;;11.60;40.11
30856;BME280;17570;0.000;0.000;2024-01-27T06:25:29;97262.27;;;11.64;40.36
30856;BME280;17570;0.000;0.000;2024-01-27T06:27:59;97265.01;;;11.62;40.53
30856;BME280;17570;0.000;0.000;2024-01-27T06:30:26;97260.50;;;11.64;40.73
30856;BME280;17570;0.000;0.000;2024-01-27T06:32:54;97252.59;;;11.66;40.84
30856;BME280;17570;0.000;0.000;2024-01-27T06:35:22;97243.48;;;11.71;41.07
30856;BME280;17570;0.000;0.000;2024-01-27T06:37:49;97251.15;;;11.73;41.31
30856;BME280;17570;0.000;0.000;2024-01-27T06:40:17;97256.34;;;11.73;41.52
30856;BME280;17570;0.000;0.000;2024-01-27T06:42:45;97254.70;;;11.72;41.84
30856;BME280;17570;0.000;0.000;2024-01-27T06:45:12;97244.06;;;11.75;41.87
30856;BME280;17570;0.000;0.000;2024-01-27T06:47:42;97252.69;;;11.75;41.91
30856;BME280;17570;0.000;0.000;2024-01-27T06:50:09;97251.15;;;11.73;42.22
30856;BME280;17570;0.000;0.000;2024-01-27T06:52:37;97245.71;;;11.76;42.60
30856;BME280;17570;0.000;0.000;2024-01-27T06:55:05;97247.36;;;11.77;42.48
30856;BME280;17570;0.000;0.000;2024-01-27T06:57:33;97234.36;;;11.77;42.59
30856;BME280;17570;0.000;0.000;2024-01-27T07:00:01;97232.45;;;11.79;42.39
30856;BME280;17570;0.000;0.000;2024-01-27T07:02:29;97228.31;;;11.88;42.42
30856;BME280;17570;0.000;0.000;2024-01-27T07:04:56;97223.12;;;11.88;42.19
30856;BME280;17570;0.000;0.000;2024-01-27T07:07:25;97217.81;;;11.89;42.40
30856;BME280;17570;0.000;0.000;2024-01-27T07:09:54;97206.45;;;11.90;42.34
30856;BME280;17570;0.000;0.000;2024-01-27T07:12:22;97211.06;;;11.87;42.56
30856;BME280;17570;0.000;0.000;2024-01-27T07:14:49;97212.13;;;11.84;42.76
30856;BME280;17570;0.000;0.000;2024-01-27T07:17:18;97210.48;;;11.83;43.09
30856;BME280;17570;0.000;0.000;2024-01-27T07:19:45;97215.92;;;11.80;42.99
30856;BME280;17570;0.000;0.000;2024-01-27T07:22:13;97211.14;;;11.96;42.98
30856;BME280;17570;0.000;0.000;2024-01-27T07:24:40;97211.29;;;12.16;45.01
30856;BME280;17570;0.000;0.000;2024-01-27T07:27:09;97205.84;;;12.19;45.01
30856;BME280;17570;0.000;0.000;2024-01-27T07:29:36;97198.63;;;12.22;45.02
30856;BME280;17570;0.000;0.000;2024-01-27T07:32:04;97188.08;;;12.24;44.64
30856;BME280;17570;0.000;0.000;2024-01-27T07:34:33;97176.84;;;12.23;44.75
30856;BME280;17570;0.000;0.000;2024-01-27T07:37:01;97195.64;;;12.27;44.86
30856;BME280;17570;0.000;0.000;2024-01-27T07:39:28;97203.69;;;12.24;44.87
30856;BME280;17570;0.000;0.000;2024-01-27T07:41:56;97195.88;;;12.24;44.55
30856;BME280;17570;0.000;0.000;2024-01-27T07:44:23;97207.36;;;12.21;44.51
30856;BME280;17570;0.000;0.000;2024-01-27T07:46:51;97201.09;;;12.24;44.72
30856;BME280;17570;0.000;0.000;2024-01-27T07:49:18;97198.34;;;12.25;44.74
30856;BME280;17570;0.000;0.000;2024-01-27T07:51:46;97198.79;;;12.31;44.70
30856;BME280;17570;0.000;0.000;2024-01-27T07:54:13;97200.70;;;12.29;44.71
30856;BME280;17570;0.000;0.000;2024-01-27T07:56:41;97194.68;;;12.28;44.74
30856;BME280;17570;0.000;0.000;2024-01-27T07:59:08;97194.55;;;12.30;44.90
30856;BME280;17570;0.000;0.000;2024-01-27T08:01:37;97186.63;;;12.31;44.89
30856;BME280;17570;0.000;0.000;2024-01-27T08:04:05;97216.19;;;12.30;45.52
30856;BME280;17570;0.000;0.000;2024-01-27T08:06:32;97218.79;;;12.30;45.02
30856;BME280;17570;0.000;0.000;2024-01-27T08:09:00;97213.78;;;12.38;45.21
30856;BME280;17570;0.000;0.000;2024-01-27T08:11:27;97218.61;;;12.43;44.75
30856;BME280;17570;0.000;0.000;2024-01-27T08:13:55;97228.64;;;12.47;44.98
30856;BME280;17570;0.000;0.000;2024-01-27T08:16:23;97236.31;;;12.49;45.07
30856;BME280;17570;0.000;0.000;2024-01-27T08:18:50;97237.27;;;12.48;45.10
30856;BME280;17570;0.000;0.000;2024-01-27T08:21:18;97259.50;;;12.52;45.44
30856;BME280;17570;0.000;0.000;2024-01-27T08:23:46;97285.41;;;12.54;45.26
30856;BME280;17570;0.000;0.000;2024-01-27T08:26:13;97275.44;;;12.59;45.29
30856;BME280;17570;0.000;0.000;2024-01-27T08:28:41;97284.55;;;12.64;44.83
30856;BME280;17570;0.000;0.000;2024-01-27T08:31:09;97277.28;;;12.68;44.87
30856;BME280;17570;0.000;0.000;2024-01-27T08:33:37;97276.07;;;12.72;44.21
30856;BME280;17570;0.000;0.000;2024-01-27T08:36:05;97288.85;;;12.75;44.89
30856;BME280;17570;0.000;0.000;2024-01-27T08:38:33;97284.91;;;12.81;43.92
30856;BME280;17570;0.000;0.000;2024-01-27T08:41:01;97280.41;;;12.83;43.67
30856;BME280;17570;0.000;0.000;2024-01-27T08:43:29;97292.91;;;12.89;43.47
30856;BME280;17570;0.000;0.000;2024-01-27T08:45:56;97291.81;;;12.91;43.92
30856;BME280;17570;0.000;0.000;2024-01-27T08:48:26;97287.08;;;12.96;43.43
30856;BME280;17570;0.000;0.000;2024-01-27T08:50:54;97301.75;;;12.97;43.19
30856;BME280;17570;0.000;0.000;2024-01-27T08:53:22;97308.35;;;13.01;43.89
30856;BME280;17570;0.000;0.000;2024-01-27T08:55:50;97309.61;;;13.07;43.39
30856;BME280;17570;0.000;0.000;2024-01-27T08:58:17;97310.05;;;13.12;42.55
30856;BME280;17570;0.000;0.000;2024-01-27T09:00:45;97303.63;;;13.16;42.24
30856;BME280;17570;0.000;0.000;2024-01-27T09:03:12;97306.91;;;13.18;41.82
30856;BME280;17570;0.000;0.000;2024-01-27T09:05:40;97309.27;;;13.21;41.86
30856;BME280;17570;0.000;0.000;2024-01-27T09:08:09;97312.48;;;13.25;41.79
30856;BME280;17570;0.000;0.000;2024-01-27T09:10:37;97308.38;;;13.32;42.22
30856;BME280;17570;0.000;0.000;2024-01-27T09:13:05;97302.09;;;13.35;41.07
30856;BME280;17570;0.000;0.000;2024-01-27T09:15:32;97315.42;;;13.41;41.97
30856;BME280;17570;0.000;0.000;2024-01-27T09:18:00;97314.78;;;13.49;41.37
30856;BME280;17570;0.000;0.000;2024-01-27T09:20:27;97306.56;;;13.53;39.94
30856;BME280;17570;0.000;0.000;2024-01-27T09:22:55;97306.22;;;13.77;42.70
30856;BME280;17570;0.000;0.000;2024-01-27T09:25:22;97316.13;;;13.93;41.63
30856;BME280;17570;0.000;0.000;2024-01-27T09:27:52;97299.25;;;13.97;41.13
30856;BME280;17570;0.000;0.000;2024-01-27T09:30:20;97298.73;;;14.03;40.41
30856;BME280;17570;0.000;0.000;2024-01-27T09:32:47;97296.66;;;14.07;39.84
30856;BME280;17570;0.000;0.000;2024-01-27T09:35:15;97304.22;;;14.10;39.87
30856;BME280;17570;0.000;0.000;2024-01-27T09:37:43;97294.45;;;14.12;39.25
30856;BME280;17570;0.000;0.000;2024-01-27T09:40:12;97286.36;;;14.15;39.17
30856;BME280;17570;0.000;0.000;2024-01-27T09:42:41;97296.66;;;14.17;38.66
30856;BME280;17570;0.000;0.000;2024-01-27T09:45:10;97296.66;;;14.17;38.07
30856;BME280;17570;0.000;0.000;2024-01-27T09:47:38;97291.44;;;14.17;39.31
30856;BME280;17570;0.000;0.000;2024-01-27T09:50:06;97287.19;;;14.16;38.66
30856;BME280;17570;0.000;0.000;2024-01-27T09:52:35;97277.45;;;14.18;38.35
30856;BME280;17570;0.000;0.000;2024-01-27T09:55:03;97276.07;;;14.23;37.05
30856;BME280;17570;0.000;0.000;2024-01-27T09:57:31;97269.73;;;14.26;37.54
30856;BME280;17570;0.000;0.000;2024-01-27T09:59:58;97277.98;;;14.31;37.56
30856;BME280;17570;0.000;0.000;2024-01-27T10:02:27;97270.44;;;14.28;36.45
30856;BME280;17570;0.000;0.000;2024-01-27T10:04:55;97282.11;;;14.34;36.54
30856;BME280;17570;0.000;0.000;2024-01-27T10:07:22;97277.71;;;14.34;37.06
30856;BME280;17570;0.000;0.000;2024-01-27T10:09:51;97288.86;;;14.36;36.73
30856;BME280;17570;0.000;0.000;2024-01-27T10:12:18;97293.12;;;14.37;36.51
30856;BME280;17570;0.000;0.000;2024-01-27T10:14:48;97303.56;;;14.37;36.34
30856;BME280;17570;0.000;0.000;2024-01-27T10:17:29;97299.42;;;14.35;36.59
30856;BME280;17570;0.000;0.000;2024-01-27T10:20:15;97295.58;;;14.29;36.73
30856;BME280;17570;0.000;0.000;2024-01-27T10:22:45;97312.73;;;14.12;37.19
30856;BME280;17570;0.000;0.000;2024-01-27T10:25:12;97301.47;;;14.21;37.11
30856;BME280;17570;0.000;0.000;2024-01-27T10:27:40;97322.25;;;14.23;36.38
30856;BME280;17570;0.000;0.000;2024-01-27T10:30:14;97310.13;;;14.22;36.24
30856;BME280;17570;0.000;0.000;2024-01-27T10:32:37;97304.64;;;14.25;36.97
30856;BME280;17570;0.000;0.000;2024-01-27T10:35:05;97312.88;;;14.20;37.60
30856;BME280;17570;0.000;0.000;2024-01-27T10:37:35;97302.44;;;14.20;36.99
30856;BME280;17570;0.000;0.000;2024-01-27T10:40:03;97309.19;;;14.23;37.58
30856;BME280;17570;0.000;0.000;2024-01-27T10:42:31;97307.66;;;14.20;36.78
30856;BME280;17570;0.000;0.000;2024-01-27T10:44:58;97311.39;;;14.18;38.31
30856;BME280;17570;0.000;0.000;2024-01-27T10:47:30;97307.39;;;14.14;37.24
30856;BME280;17570;0.000;0.000;2024-01-27T10:49:59;97316.31;;;14.11;37.95
30856;BME280;17570;0.000;0.000;2024-01-27T10:52:31;97312.62;;;14.14;37.37
30856;BME280;17570;0.000;0.000;2024-01-27T10:55:01;97327.05;;;14.18;37.40
30856;BME280;17570;0.000;0.000;2024-01-27T10:57:30;97336.79;;;14.16;36.87
30856;BME280;17570;0.000;0.000;2024-01-27T11:00:02;97363.72;;;14.16;37.46
30856;BME280;17570;0.000;0.000;2024-01-27T11:02:41;97354.09;;;14.17;36.98
30856;BME280;17570;0.000;0.000;2024-01-27T11:05:09;97353.96;;;14.09;37.99
30856;BME280;17570;0.000;0.000;2024-01-27T11:07:42;97344.34;;;14.09;38.15
30856;BME280;17570;0.000;0.000;2024-01-27T11:10:11;97360.00;;;14.09;37.47
30856;BME280;17570;0.000;0.000;2024-01-27T11:12:45;97351.61;;;14.06;37.45
30856;BME280;17570;0.000;0.000;2024-01-27T11:15:14;97368.64;;;14.00;38.01
30856;BME280;17570;0.000;0.000;2024-01-27T11:17:45;97369.20;;;14.03;37.90
30856;BME280;17570;0.000;0.000;2024-01-27T11:20:16;97377.03;;;14.03;37.49
30856;BME280;17570;0.000;0.000;2024-01-27T11:22:47;97371.11;;;14.01;37.84
30856;BME280;17570;0.000;0.000;2024-01-27T11:25:18;97379.36;;;14.07;37.82
30856;BME280;17570;0.000;0.000;2024-01-27T11:27:47;97374.14;;;14.07;38.02
30856;BME280;17570;0.000;0.000;2024-01-27T11:30:30;97390.08;;;14.03;37.64
30856;BME280;17570;0.000;0.000;2024-01-27T11:33:01;97394.98;;;13.97;38.20
30856;BME280;17570;0.000;0.000;2024-01-27T11:35:36;97391.27;;;13.90;38.51
30856;BME280;17570;0.000;0.000;2024-01-27T11:38:12;97379.87;;;13.91;38.61
30856;BME280;17570;0.000;0.000;2024-01-27T11:40:45;97384.38;;;13.89;38.86
30856;BME280;17570;0.000;0.000;2024-01-27T11:43:16;97380.69;;;13.91;39.01
30856;BME280;17570;0.000;0.000;2024-01-27T11:45:59;97382.59;;;13.89;38.45
30856;BME280;17570;0.000;0.000;2024-01-27T11:48:26;97385.34;;;13.88;38.37
30856;BME280;17570;0.000;0.000;2024-01-27T11:51:03;97394.78;;;13.79;39.44
30856;BME280;17570;0.000;0.000;2024-01-27T11:53:32;97399.89;;;13.81;39.00
30856;BME280;17570;0.000;0.000;2024-01-27T11:56:00;97405.65;;;13.84;38.69
30856;BME280;17570;0.000;0.000;2024-01-27T11:58:45;97381.09;;;13.87;38.43
30856;BME280;17570;0.000;0.000;2024-01-27T12:01:14;97401.25;;;13.85;38.55
30856;BME280;17570;0.000;0.000;2024-01-27T12:03:44;97394.67;;;13.81;38.82
30856;BME280;17570;0.000;0.000;2024-01-27T12:06:19;97400.31;;;13.86;39.17
30856;BME280;17570;0.000;0.000;2024-01-27T12:09:09;97398.78;;;13.83;38.71
30856;BME280;17570;0.000;0.000;2024-01-27T12:11:45;97406.44;;;13.75;38.18
30856;BME280;17570;0.000;0.000;2024-01-27T12:14:16;97401.22;;;13.75;38.60
30856;BME280;17570;0.000;0.000;2024-01-27T12:16:47;97421.02;;;13.77;38.68
30856;BME280;17570;0.000;0.000;2024-01-27T12:19:19;97424.20;;;13.81;38.55
30856;BME280;17570;0.000;0.000;2024-01-27T12:21:48;97425.70;;;13.84;38.50
30856;BME280;17570;0.000;0.000;2024-01-27T12:24:18;97437.10;;;13.83;38.31
30856;BME280;17570;0.000;0.000;2024-01-27T12:26:45;97441.36;;;13.84;38.42
30856;BME280;17570;0.000;0.000;2024-01-27T12:29:13;97428.62;;;13.90;38.30
30856;BME280;17570;0.000;0.000;2024-01-27T12:31:46;97435.50;;;13.91;38.67
30856;BME280;17570;0.000;0.000;2024-01-27T12:34:18;97444.54;;;13.87;38.03
30856;BME280;17570;0.000;0.000;2024-01-27T12:36:47;97451.50;;;13.77;38.35
30856;BME280;17570;0.000;0.000;2024-01-27T12:39:15;97449.58;;;13.79;39.86
30856;BME280;17570;0.000;0.000;2024-01-27T12:41:43;97439.85;;;13.81;38.50
30856;BME280;17570;0.000;0.000;2024-01-27T12:44:15;97465.37;;;13.77;38.31
30856;BME280;17570;0.000;0.000;2024-01-27T12:46:53;97441.75;;;13.79;39.63
30856;BME280;17570;0.000;0.000;2024-01-27T12:49:24;97447.25;;;13.76;38.69
30856;BME280;17570;0.000;0.000;2024-01-27T12:51:52;97447.35;;;13.74;38.63
30856;BME280;17570;0.000;0.000;2024-01-27T12:54:19;97450.24;;;13.71;38.61
30856;BME280;17570;0.000;0.000;2024-01-27T12:56:47;97449.14;;;13.74;39.02
30856;BME280;17570;0.000;0.000;2024-01-27T12:59:14;97444.06;;;13.72;38.73
30856;BME280;17570;0.000;0.000;2024-01-27T13:01:42;97451.50;;;13.77;39.83
30856;BME280;17570;0.000;0.000;2024-01-27T13:04:10;97450.01;;;13.84;38.90
30856;BME280;17570;0.000;0.000;2024-01-27T13:06:38;97472.56;;;13.85;38.84
30856;BME280;17570;0.000;0.000;2024-01-27T13:09:06;97474.31;;;13.85;38.59
30856;BME280;17570;0.000;0.000;2024-01-27T13:11:49;97472.09;;;13.80;38.39
30856;BME280;17570;0.000;0.000;2024-01-27T13:14:17;97467.16;;;13.77;39.08
30856;BME280;17570;0.000;0.000;2024-01-27T13:16:46;97464.11;;;13.72;38.87
30856;BME280;17570;0.000;0.000;2024-01-27T13:19:27;97472.32;;;13.67;38.75